Time;durP1;ratioP1;P1;durP2;ratioP2;P2;SDS_P1;SDS_P2;PMS_P1;PMS_P2;Temp;Humidity;BMP_temperature;BMP_pressure;BME280_temperature;BME280_humidity;BME280_pressure;Samples;Min_cycle;Max_cycle;Signal;HPM_P1;HPM_P2
2021/07/25 00:02:13;;;;;;;;;;;;;;;22.24;100.00;98279.50;4960385;28;19914;-65
2021/07/25 00:04:39;;;;;;;;;;;;;;;21.90;100.00;98277.31;4962348;28;19914;-64
2021/07/25 00:07:04;;;;;;;;;;;;;;;22.02;100.00;98275.34;4965879;28;19926;-64
2021/07/25 00:09:29;;;;;;;;;;;;;;;21.62;100.00;98281.56;4961672;28;19915;-65
2021/07/25 00:11:55;;;;;;;;;;;;;;;22.05;100.00;98270.66;4958623;28;20380;-65
2021/07/25 00:14:20;;;;;;;;;;;;;;;21.68;100.00;98279.22;4954772;28;19921;-64
2021/07/25 00:16:45;;;;;;;;;;;;;;;21.99;100.00;98273.84;4967022;28;19953;-64
2021/07/25 00:19:12;;;;;;;;;;;;;;;21.14;100.00;98279.63;4964389;28;19929;-64
2021/07/25 00:21:38;;;;;;;;;;;;;;;21.27;100.00;98283.66;4957434;28;19918;-64
2021/07/25 00:24:03;;;;;;;;;;;;;;;20.96;100.00;98279.44;4963928;28;19936;-64
2021/07/25 00:26:35;;;;;;;;;;;;;;;21.17;100.00;98277.59;4965419;28;19918;-64
2021/07/25 00:29:01;;;;;;;;;;;;;;;21.36;100.00;98279.41;4980825;28;20547;-64
2021/07/25 00:31:29;;;;;;;;;;;;;;;22.17;100.00;98276.59;4961565;28;19914;-64
2021/07/25 00:33:54;;;;;;;;;;;;;;;21.81;100.00;98283.38;4954659;28;19997;-64
2021/07/25 00:36:20;;;;;;;;;;;;;;;21.93;100.00;98277.00;4966449;28;19962;-64
2021/07/25 00:38:45;;;;;;;;;;;;;;;22.05;100.00;98264.56;4968145;28;19919;-64
2021/07/25 00:41:11;;;;;;;;;;;;;;;21.90;100.00;98280.75;4968321;28;19918;-65
2021/07/25 00:43:37;;;;;;;;;;;;;;;21.69;100.00;98273.03;4961327;28;19955;-64
2021/07/25 00:46:03;;;;;;;;;;;;;;;21.75;100.00;98270.81;4959839;28;20423;-64
2021/07/25 00:48:28;;;;;;;;;;;;;;;21.58;100.00;98274.94;4958714;28;19923;-64
2021/07/25 00:50:54;;;;;;;;;;;;;;;21.02;100.00;98271.06;4981353;28;20339;-65
2021/07/25 00:53:19;;;;;;;;;;;;;;;21.43;100.00;98269.25;4953712;28;19950;-64
2021/07/25 00:55:45;;;;;;;;;;;;;;;21.66;100.00;98270.66;4978999;28;19914;-65
2021/07/25 00:58:10;;;;;;;;;;;;;;;21.57;100.00;98271.47;4960086;28;19965;-64
2021/07/25 01:00:36;;;;;;;;;;;;;;;21.56;100.00;98272.47;4958998;28;19914;-65
2021/07/25 01:03:10;;;;;;;;;;;;;;;21.65;100.00;98273.44;4968273;28;19969;-65
2021/07/25 01:05:38;;;;;;;;;;;;;;;21.59;100.00;98268.72;4966254;28;19914;-64
2021/07/25 01:08:08;;;;;;;;;;;;;;;21.37;100.00;98265.38;4955491;28;19981;-64
2021/07/25 01:10:33;;;;;;;;;;;;;;;21.33;100.00;98258.75;4954995;28;20372;-64
2021/07/25 01:13:08;;;;;;;;;;;;;;;20.85;100.00;98255.03;4961525;28;19962;-64
2021/07/25 01:15:33;;;;;;;;;;;;;;;20.88;100.00;98261.78;4965324;28;20013;-64
2021/07/25 01:17:59;;;;;;;;;;;;;;;20.75;100.00;98258.56;4960240;28;20013;-64
2021/07/25 01:20:24;;;;;;;;;;;;;;;21.33;100.00;98250.88;4955887;28;19961;-64
2021/07/25 01:22:51;;;;;;;;;;;;;;;21.20;100.00;98260.78;4968739;28;19914;-64
2021/07/25 01:25:17;;;;;;;;;;;;;;;21.31;100.00;98252.81;4966903;28;19921;-64
2021/07/25 01:28:01;;;;;;;;;;;;;;;21.37;100.00;98249.66;4982463;28;19914;-64
2021/07/25 01:30:28;;;;;;;;;;;;;;;21.77;100.00;98250.53;4964197;28;19915;-64
2021/07/25 01:32:55;;;;;;;;;;;;;;;21.25;100.00;98246.31;4992722;28;19918;-64
2021/07/25 01:35:20;;;;;;;;;;;;;;;21.51;100.00;98240.59;4971006;28;19914;-64
2021/07/25 01:37:46;;;;;;;;;;;;;;;21.05;100.00;98245.47;4992586;28;19929;-65
2021/07/25 01:40:15;;;;;;;;;;;;;;;20.86;100.00;98235.75;4964712;28;19961;-65
2021/07/25 01:42:40;;;;;;;;;;;;;;;21.14;100.00;98245.59;4968104;28;19914;-65
2021/07/25 01:45:06;;;;;;;;;;;;;;;20.85;100.00;98247.19;4970708;28;20458;-64
2021/07/25 01:47:31;;;;;;;;;;;;;;;20.78;100.00;98242.63;4971657;28;19929;-65
2021/07/25 01:49:57;;;;;;;;;;;;;;;20.67;100.00;98251.38;4963688;28;19937;-64
2021/07/25 01:52:22;;;;;;;;;;;;;;;20.93;100.00;98246.50;4975584;28;19918;-65
2021/07/25 01:54:48;;;;;;;;;;;;;;;20.41;100.00;98249.19;4970670;28;19921;-64
2021/07/25 01:57:13;;;;;;;;;;;;;;;20.58;100.00;98249.56;4971105;28;19946;-64
2021/07/25 01:59:38;;;;;;;;;;;;;;;20.52;100.00;98250.88;4964884;28;19937;-65
2021/07/25 02:02:04;;;;;;;;;;;;;;;20.18;100.00;98247.66;4959516;28;19921;-64
2021/07/25 02:04:29;;;;;;;;;;;;;;;20.76;100.00;98250.59;4969007;28;19996;-64
2021/07/25 02:06:55;;;;;;;;;;;;;;;20.44;100.00;98248.91;4986560;28;19915;-65
2021/07/25 02:09:20;;;;;;;;;;;;;;;20.53;100.00;98254.34;4964610;28;20398;-65
2021/07/25 02:11:45;;;;;;;;;;;;;;;21.17;100.00;98250.59;4969387;28;19922;-64
2021/07/25 02:14:11;;;;;;;;;;;;;;;20.89;100.00;98245.97;4971248;28;19925;-64
2021/07/25 02:16:36;;;;;;;;;;;;;;;21.05;100.00;98244.63;4971225;28;19961;-65
2021/07/25 02:19:02;;;;;;;;;;;;;;;20.71;100.00;98247.56;4971355;28;19918;-64
2021/07/25 02:21:27;;;;;;;;;;;;;;;20.22;100.00;98247.25;4959113;28;19989;-64
2021/07/25 02:23:52;;;;;;;;;;;;;;;20.40;100.00;98244.88;4964314;28;19915;-64
2021/07/25 02:26:18;;;;;;;;;;;;;;;20.30;100.00;98248.41;4964607;28;19977;-65
2021/07/25 02:28:43;;;;;;;;;;;;;;;20.85;100.00;98249.81;4963752;28;19921;-65
2021/07/25 02:31:09;;;;;;;;;;;;;;;20.76;100.00;98240.13;4963260;28;19914;-64
2021/07/25 02:33:34;;;;;;;;;;;;;;;20.94;100.00;98247.34;4964032;28;19914;-64
2021/07/25 02:36:00;;;;;;;;;;;;;;;20.76;100.00;98263.69;4959580;28;19914;-64
2021/07/25 02:38:25;;;;;;;;;;;;;;;20.82;100.00;98265.78;4964744;28;20588;-65
2021/07/25 02:40:50;;;;;;;;;;;;;;;20.51;100.00;98258.84;4963336;28;19922;-65
2021/07/25 02:43:16;;;;;;;;;;;;;;;19.98;100.00;98254.53;4987930;28;19914;-64
2021/07/25 02:45:41;;;;;;;;;;;;;;;20.01;100.00;98251.69;4971177;28;21201;-65
2021/07/25 02:48:06;;;;;;;;;;;;;;;20.20;100.00;98250.97;4964332;28;20299;-64
2021/07/25 02:50:32;;;;;;;;;;;;;;;20.56;100.00;98256.69;4976025;28;19997;-64
2021/07/25 02:52:57;;;;;;;;;;;;;;;20.64;100.00;98254.25;4963338;28;19914;-65
2021/07/25 02:55:22;;;;;;;;;;;;;;;20.38;100.00;98252.03;4966667;28;19914;-64
2021/07/25 02:57:48;;;;;;;;;;;;;;;20.42;100.00;98248.22;4963524;28;20450;-64
2021/07/25 03:00:13;;;;;;;;;;;;;;;20.65;100.00;98248.06;4956299;28;19915;-65
2021/07/25 03:02:39;;;;;;;;;;;;;;;20.91;100.00;98247.59;4957465;28;20454;-65
2021/07/25 03:05:05;;;;;;;;;;;;;;;20.67;100.00;98240.94;4967896;28;19931;-65
2021/07/25 03:07:30;;;;;;;;;;;;;;;20.23;100.00;98243.72;4961451;28;19914;-64
2021/07/25 03:09:55;;;;;;;;;;;;;;;20.11;100.00;98249.13;4954968;28;19914;-65
2021/07/25 03:12:21;;;;;;;;;;;;;;;19.88;100.00;98244.00;4963498;28;19931;-64
2021/07/25 03:14:46;;;;;;;;;;;;;;;20.06;100.00;98237.25;4970573;28;19914;-65
2021/07/25 03:17:11;;;;;;;;;;;;;;;19.95;100.00;98239.94;4956045;28;20020;-64
2021/07/25 03:19:37;;;;;;;;;;;;;;;20.06;100.00;98242.47;4964803;28;19914;-64
2021/07/25 03:22:04;;;;;;;;;;;;;;;20.17;100.00;98227.69;4958182;28;19918;-64
2021/07/25 03:24:30;;;;;;;;;;;;;;;20.50;100.00;98236.25;4959097;28;20242;-65
2021/07/25 03:26:56;;;;;;;;;;;;;;;21.00;100.00;98237.16;4959075;28;19986;-64
2021/07/25 03:29:21;;;;;;;;;;;;;;;21.21;100.00;98239.72;4957005;28;20332;-65
2021/07/25 03:31:46;;;;;;;;;;;;;;;21.27;100.00;98244.38;4958909;28;20269;-65
2021/07/25 03:34:12;;;;;;;;;;;;;;;20.69;100.00;98246.84;4961005;28;20296;-65
2021/07/25 03:36:38;;;;;;;;;;;;;;;20.75;100.00;98235.03;4961366;28;20447;-64
2021/07/25 03:39:06;;;;;;;;;;;;;;;20.71;100.00;98234.47;4970192;28;19929;-65
2021/07/25 03:41:32;;;;;;;;;;;;;;;20.47;100.00;98235.56;4959632;28;19918;-64
2021/07/25 03:43:57;;;;;;;;;;;;;;;19.95;100.00;98236.50;4961331;28;19921;-64
2021/07/25 03:46:23;;;;;;;;;;;;;;;19.94;100.00;98235.69;4956617;28;19992;-65
2021/07/25 03:48:48;;;;;;;;;;;;;;;19.71;100.00;98236.75;4960183;28;19925;-64
2021/07/25 03:51:14;;;;;;;;;;;;;;;19.52;100.00;98238.19;4967183;28;20564;-64
2021/07/25 03:53:39;;;;;;;;;;;;;;;19.67;100.00;98235.31;4969009;28;19918;-64
2021/07/25 03:56:04;;;;;;;;;;;;;;;19.84;100.00;98221.69;4967069;28;19915;-65
2021/07/25 03:58:30;;;;;;;;;;;;;;;20.34;100.00;98224.47;4958970;28;19925;-64
2021/07/25 04:00:55;;;;;;;;;;;;;;;20.56;100.00;98233.97;4957128;28;19920;-64
2021/07/25 04:03:21;;;;;;;;;;;;;;;19.79;100.00;98235.13;4971674;28;19919;-64
2021/07/25 04:05:46;;;;;;;;;;;;;;;19.79;100.00;98239.53;4953612;28;19922;-64
2021/07/25 04:08:11;;;;;;;;;;;;;;;19.55;100.00;98240.56;4967004;28;19926;-64
2021/07/25 04:10:40;;;;;;;;;;;;;;;19.48;100.00;98247.25;4963234;28;19914;-64
2021/07/25 04:13:06;;;;;;;;;;;;;;;19.51;100.00;98247.00;4967723;28;20026;-64
2021/07/25 04:15:32;;;;;;;;;;;;;;;19.75;100.00;98240.75;4959766;28;20009;-65
2021/07/25 04:17:57;;;;;;;;;;;;;;;19.68;100.00;98244.78;4952228;28;19919;-64
2021/07/25 04:20:22;;;;;;;;;;;;;;;19.35;100.00;98251.78;4962686;28;19942;-64
2021/07/25 04:22:48;;;;;;;;;;;;;;;19.51;100.00;98256.59;4954954;28;19981;-64
2021/07/25 04:25:13;;;;;;;;;;;;;;;19.79;100.00;98257.84;4959078;28;19926;-64
2021/07/25 04:27:40;;;;;;;;;;;;;;;19.57;100.00;98266.56;4951113;28;19922;-63
2021/07/25 04:30:05;;;;;;;;;;;;;;;19.45;100.00;98265.75;4959207;28;19984;-64
2021/07/25 04:32:31;;;;;;;;;;;;;;;19.39;100.00;98261.03;4960167;28;20427;-64
2021/07/25 04:34:56;;;;;;;;;;;;;;;19.64;100.00;98263.31;4965291;28;19921;-63
2021/07/25 04:37:24;;;;;;;;;;;;;;;19.35;100.00;98263.06;4971875;28;19914;-63
2021/07/25 04:39:50;;;;;;;;;;;;;;;19.54;100.00;98262.41;4964363;28;19952;-63
2021/07/25 04:42:20;;;;;;;;;;;;;;;19.75;100.00;98267.72;4961775;28;20548;-62
2021/07/25 04:44:52;;;;;;;;;;;;;;;19.50;100.00;98266.22;4973524;28;19914;-63
2021/07/25 04:47:19;;;;;;;;;;;;;;;19.60;100.00;98267.13;4962644;28;19921;-63
2021/07/25 04:50:06;;;;;;;;;;;;;;;19.46;100.00;98264.81;4953741;28;19956;-65
2021/07/25 04:52:36;;;;;;;;;;;;;;;19.65;100.00;98264.16;4970273;28;20571;-63
2021/07/25 04:55:02;;;;;;;;;;;;;;;19.74;100.00;98268.66;4968875;28;20343;-64
2021/07/25 04:57:27;;;;;;;;;;;;;;;19.88;100.00;98270.13;4980015;28;19922;-65
2021/07/25 04:59:54;;;;;;;;;;;;;;;19.77;100.00;98273.63;4958689;28;19954;-63
2021/07/25 05:02:23;;;;;;;;;;;;;;;20.14;100.00;98269.75;4977794;28;19914;-63
2021/07/25 05:04:49;;;;;;;;;;;;;;;20.30;100.00;98267.56;4970346;28;20339;-62
2021/07/25 05:07:14;;;;;;;;;;;;;;;20.39;100.00;98273.78;4956910;28;19926;-64
2021/07/25 05:09:40;;;;;;;;;;;;;;;20.27;100.00;98275.63;4966594;28;19922;-64
2021/07/25 05:12:10;;;;;;;;;;;;;;;20.27;100.00;98276.50;4951370;28;19923;-64
2021/07/25 05:15:01;;;;;;;;;;;;;;;20.24;100.00;98271.50;4950945;28;19918;-64
2021/07/25 05:17:29;;;;;;;;;;;;;;;20.44;100.00;98267.22;4958840;28;19918;-64
2021/07/25 05:20:15;;;;;;;;;;;;;;;20.54;100.00;98267.25;4952726;28;19966;-64
2021/07/25 05:22:56;;;;;;;;;;;;;;;20.42;100.00;98263.91;4976422;28;19977;-63
2021/07/25 05:25:22;;;;;;;;;;;;;;;20.66;100.00;98260.19;4966809;28;19919;-62
2021/07/25 05:27:48;;;;;;;;;;;;;;;20.87;100.00;98268.00;4970429;28;19921;-62
2021/07/25 05:30:15;;;;;;;;;;;;;;;21.06;100.00;98277.69;4974684;28;19964;-63
2021/07/25 05:32:40;;;;;;;;;;;;;;;21.14;100.00;98270.00;4961538;28;19914;-63
2021/07/25 05:35:06;;;;;;;;;;;;;;;21.05;100.00;98276.03;4968398;28;20013;-62
2021/07/25 05:37:31;;;;;;;;;;;;;;;20.97;100.00;98268.03;4968713;28;19969;-63
2021/07/25 05:39:57;;;;;;;;;;;;;;;21.26;100.00;98268.94;4968798;28;19914;-62
2021/07/25 05:42:22;;;;;;;;;;;;;;;21.45;100.00;98269.97;4958812;28;19925;-63
2021/07/25 05:44:48;;;;;;;;;;;;;;;21.59;100.00;98269.56;4951019;28;20284;-63
2021/07/25 05:47:13;;;;;;;;;;;;;;;21.70;100.00;98266.81;4950897;28;20026;-62
2021/07/25 05:49:38;;;;;;;;;;;;;;;21.79;100.00;98273.00;4968739;28;19914;-63
2021/07/25 05:52:04;;;;;;;;;;;;;;;21.70;100.00;98273.84;4970091;28;19914;-63
2021/07/25 05:54:29;;;;;;;;;;;;;;;21.49;100.00;98271.34;4974555;28;19915;-63
2021/07/25 05:56:55;;;;;;;;;;;;;;;21.76;100.00;98278.53;4979958;28;19915;-63
2021/07/25 05:59:20;;;;;;;;;;;;;;;21.79;100.00;98272.19;4967282;28;19997;-61
2021/07/25 06:01:45;;;;;;;;;;;;;;;21.65;100.00;98274.25;4967470;28;20328;-62
2021/07/25 06:04:11;;;;;;;;;;;;;;;21.66;100.00;98275.91;4974020;28;19918;-62
2021/07/25 06:06:36;;;;;;;;;;;;;;;21.91;100.00;98265.84;4969500;28;20422;-63
2021/07/25 06:09:06;;;;;;;;;;;;;;;21.95;100.00;98267.22;4972437;28;19921;-63
2021/07/25 06:11:32;;;;;;;;;;;;;;;21.67;100.00;98276.75;4964726;28;20364;-63
2021/07/25 06:13:58;;;;;;;;;;;;;;;21.83;100.00;98270.97;4970644;28;19922;-64
2021/07/25 06:16:23;;;;;;;;;;;;;;;21.58;100.00;98278.41;4973616;28;19914;-63
2021/07/25 06:18:49;;;;;;;;;;;;;;;21.77;100.00;98277.56;4980868;28;20283;-63
2021/07/25 06:21:14;;;;;;;;;;;;;;;22.19;100.00;98273.81;4986882;28;19966;-63
2021/07/25 06:23:40;;;;;;;;;;;;;;;22.16;100.00;98281.97;4973042;28;20391;-63
2021/07/25 06:26:05;;;;;;;;;;;;;;;21.88;100.00;98276.59;4972516;28;20565;-63
2021/07/25 06:28:30;;;;;;;;;;;;;;;21.84;100.00;98290.94;4973227;28;19914;-63
2021/07/25 06:30:56;;;;;;;;;;;;;;;21.53;100.00;98288.47;4972348;28;20001;-63
2021/07/25 06:33:21;;;;;;;;;;;;;;;21.71;100.00;98280.72;4971768;28;19918;-63
2021/07/25 06:35:47;;;;;;;;;;;;;;;21.73;100.00;98291.91;4972970;28;19969;-63
2021/07/25 06:38:13;;;;;;;;;;;;;;;22.22;100.00;98297.19;4972463;28;19965;-63
2021/07/25 06:40:40;;;;;;;;;;;;;;;22.14;100.00;98296.03;4970538;28;19928;-63
2021/07/25 06:43:05;;;;;;;;;;;;;;;23.39;100.00;98290.53;4971383;28;20010;-63
2021/07/25 06:45:31;;;;;;;;;;;;;;;23.70;100.00;98305.97;4962626;28;20358;-63
2021/07/25 06:47:57;;;;;;;;;;;;;;;22.90;100.00;98310.94;4965879;28;19918;-63
2021/07/25 06:50:23;;;;;;;;;;;;;;;22.87;100.00;98307.78;4975621;28;20327;-64
2021/07/25 06:52:49;;;;;;;;;;;;;;;23.88;100.00;98308.66;4969659;28;20273;-63
2021/07/25 06:55:14;;;;;;;;;;;;;;;23.45;100.00;98317.22;4966028;28;19914;-63
2021/07/25 06:57:40;;;;;;;;;;;;;;;23.14;100.00;98314.88;4961849;28;20190;-63
2021/07/25 07:00:06;;;;;;;;;;;;;;;22.98;100.00;98318.91;4964467;28;19957;-62
2021/07/25 07:03:01;;;;;;;;;;;;;;;22.76;100.00;98321.91;4969554;28;19949;-63
2021/07/25 07:05:27;;;;;;;;;;;;;;;23.02;100.00;98313.44;4966191;28;20085;-62
2021/07/25 07:07:53;;;;;;;;;;;;;;;23.27;100.00;98315.38;4971090;28;20350;-63
2021/07/25 07:10:20;;;;;;;;;;;;;;;23.46;100.00;98314.41;4968412;28;19919;-63
2021/07/25 07:12:45;;;;;;;;;;;;;;;23.58;100.00;98320.28;4958363;28;19923;-63
2021/07/25 07:15:11;;;;;;;;;;;;;;;23.81;100.00;98310.19;4957866;28;20414;-62
2021/07/25 07:17:38;;;;;;;;;;;;;;;23.78;100.00;98319.22;4960779;28;19926;-62
2021/07/25 07:20:04;;;;;;;;;;;;;;;23.68;100.00;98320.25;4957520;28;20009;-63
2021/07/25 07:22:30;;;;;;;;;;;;;;;23.37;100.00;98316.13;4970615;28;19914;-63
2021/07/25 07:24:56;;;;;;;;;;;;;;;23.58;100.00;98318.50;4974267;28;20116;-63
2021/07/25 07:27:22;;;;;;;;;;;;;;;23.96;100.00;98316.59;4977736;28;19929;-63
2021/07/25 07:29:47;;;;;;;;;;;;;;;23.38;100.00;98319.59;4966723;28;19914;-64
2021/07/25 07:32:13;;;;;;;;;;;;;;;23.58;100.00;98317.66;4971064;28;20287;-63
2021/07/25 07:34:38;;;;;;;;;;;;;;;23.76;100.00;98326.41;4961715;28;20037;-63
2021/07/25 07:37:04;;;;;;;;;;;;;;;23.52;100.00;98331.41;4971231;28;20303;-63
2021/07/25 07:39:29;;;;;;;;;;;;;;;23.73;100.00;98331.97;4962630;28;19918;-63
2021/07/25 07:41:55;;;;;;;;;;;;;;;24.02;99.93;98320.44;4970865;28;20394;-64
2021/07/25 07:44:20;;;;;;;;;;;;;;;23.62;100.00;98334.78;4970753;28;19926;-63
2021/07/25 07:46:45;;;;;;;;;;;;;;;24.58;96.46;98332.38;4970690;28;20052;-63
2021/07/25 07:49:11;;;;;;;;;;;;;;;24.29;99.07;98342.34;4969056;28;19922;-64
2021/07/25 07:51:36;;;;;;;;;;;;;;;24.52;95.33;98338.28;4953041;28;19919;-63
2021/07/25 07:54:01;;;;;;;;;;;;;;;24.54;96.09;98331.06;4958065;28;19918;-63
2021/07/25 07:56:29;;;;;;;;;;;;;;;24.41;94.96;98341.13;4971193;28;19914;-63
2021/07/25 07:58:55;;;;;;;;;;;;;;;24.22;93.42;98336.84;4969639;28;20402;-63
2021/07/25 08:01:20;;;;;;;;;;;;;;;24.86;91.99;98332.25;4969757;28;19914;-63
2021/07/25 08:03:45;;;;;;;;;;;;;;;24.68;92.75;98339.34;4967734;28;19922;-63
2021/07/25 08:06:13;;;;;;;;;;;;;;;25.67;89.78;98344.09;4950791;28;21340;-63
2021/07/25 08:08:38;;;;;;;;;;;;;;;25.64;88.26;98333.88;4952482;28;19968;-63
2021/07/25 08:11:03;;;;;;;;;;;;;;;25.56;88.27;98344.41;4961938;28;19922;-62
2021/07/25 08:13:29;;;;;;;;;;;;;;;25.75;88.83;98344.13;4969991;28;19918;-63
2021/07/25 08:15:54;;;;;;;;;;;;;;;25.97;86.57;98345.34;4970261;28;19931;-63
2021/07/25 08:18:20;;;;;;;;;;;;;;;25.05;87.32;98347.81;4965838;28;20360;-63
2021/07/25 08:20:45;;;;;;;;;;;;;;;24.82;87.78;98344.88;4969626;28;19921;-63
2021/07/25 08:23:10;;;;;;;;;;;;;;;25.60;85.71;98345.75;4973635;28;19917;-63
2021/07/25 08:25:36;;;;;;;;;;;;;;;25.73;85.26;98348.75;4965388;28;20360;-64
2021/07/25 08:28:01;;;;;;;;;;;;;;;25.24;80.36;98345.94;4970768;28;19918;-63
2021/07/25 08:30:29;;;;;;;;;;;;;;;25.65;84.03;98351.34;4970043;28;20356;-63
2021/07/25 08:32:55;;;;;;;;;;;;;;;26.30;85.37;98350.66;4968426;28;20207;-63
2021/07/25 08:35:20;;;;;;;;;;;;;;;26.52;77.73;98346.47;4953190;28;19918;-63
2021/07/25 08:37:46;;;;;;;;;;;;;;;25.73;80.44;98351.38;4966217;28;19922;-64
2021/07/25 08:40:12;;;;;;;;;;;;;;;25.72;81.48;98351.53;4962655;28;19922;-64
2021/07/25 08:42:39;;;;;;;;;;;;;;;26.33;77.96;98342.38;4959459;28;19918;-63
2021/07/25 08:45:05;;;;;;;;;;;;;;;25.95;80.26;98346.50;4979940;28;19946;-63
2021/07/25 08:47:36;;;;;;;;;;;;;;;26.10;79.23;98344.84;4971158;28;19942;-63
2021/07/25 08:50:07;;;;;;;;;;;;;;;26.54;77.03;98341.88;4968739;28;20380;-63
2021/07/25 08:52:33;;;;;;;;;;;;;;;26.65;82.16;98343.38;4965438;28;20064;-63
2021/07/25 08:54:59;;;;;;;;;;;;;;;28.03;70.75;98354.41;4963401;28;19914;-63
2021/07/25 08:57:28;;;;;;;;;;;;;;;27.97;74.02;98352.44;4970409;28;19972;-63
2021/07/25 08:59:54;;;;;;;;;;;;;;;27.92;74.78;98358.28;4969496;28;20024;-63
2021/07/25 09:02:19;;;;;;;;;;;;;;;28.02;67.33;98351.91;4959261;28;19965;-63
2021/07/25 09:04:48;;;;;;;;;;;;;;;27.68;71.46;98351.25;4969505;28;19954;-63
2021/07/25 09:07:14;;;;;;;;;;;;;;;28.51;67.53;98346.22;4966221;28;19922;-64
2021/07/25 09:09:41;;;;;;;;;;;;;;;27.94;69.74;98352.81;4950570;28;19922;-63
2021/07/25 09:12:07;;;;;;;;;;;;;;;28.23;67.30;98351.25;4960200;28;20234;-64
2021/07/25 09:14:32;;;;;;;;;;;;;;;29.34;61.83;98341.72;4969143;28;20392;-63
2021/07/25 09:16:57;;;;;;;;;;;;;;;28.89;61.42;98346.19;4960859;28;19918;-64
2021/07/25 09:19:23;;;;;;;;;;;;;;;29.32;58.58;98346.38;4963522;28;19970;-63
2021/07/25 09:21:52;;;;;;;;;;;;;;;29.68;62.84;98337.66;4974172;28;20191;-63
2021/07/25 09:24:22;;;;;;;;;;;;;;;29.94;59.76;98342.41;4961212;28;19918;-63
2021/07/25 09:26:54;;;;;;;;;;;;;;;28.69;61.83;98343.25;4964277;28;20249;-63
2021/07/25 09:29:22;;;;;;;;;;;;;;;29.09;64.43;98339.38;4972044;28;19914;-64
2021/07/25 09:31:47;;;;;;;;;;;;;;;30.39;61.69;98343.03;4964861;28;19965;-64
2021/07/25 09:34:32;;;;;;;;;;;;;;;29.75;61.48;98338.53;4957459;28;19919;-63
2021/07/25 09:37:11;;;;;;;;;;;;;;;31.23;60.10;98342.97;4952006;28;19919;-63
2021/07/25 09:39:40;;;;;;;;;;;;;;;31.21;58.23;98339.69;4964564;28;19918;-63
2021/07/25 09:42:06;;;;;;;;;;;;;;;29.47;52.64;98343.69;4960041;28;19914;-63
2021/07/25 09:44:50;;;;;;;;;;;;;;;31.50;56.55;98343.13;4957049;28;19965;-63
2021/07/25 09:47:25;;;;;;;;;;;;;;;31.04;53.14;98344.53;4967870;28;19921;-64
2021/07/25 09:49:51;;;;;;;;;;;;;;;31.06;54.76;98341.66;4962991;28;19914;-64
2021/07/25 09:52:16;;;;;;;;;;;;;;;28.90;54.26;98342.56;4973808;28;19918;-64
2021/07/25 09:54:42;;;;;;;;;;;;;;;30.12;53.90;98336.66;4974204;28;20013;-64
2021/07/25 09:57:11;;;;;;;;;;;;;;;27.49;65.63;98347.25;4960224;28;19937;-63
2021/07/25 09:59:36;;;;;;;;;;;;;;;28.02;60.72;98339.50;4973551;28;19918;-64
2021/07/25 10:02:01;;;;;;;;;;;;;;;28.95;57.56;98337.53;4974261;28;19918;-63
2021/07/25 10:04:27;;;;;;;;;;;;;;;30.79;50.52;98336.16;4962936;28;20540;-63
2021/07/25 10:06:54;;;;;;;;;;;;;;;29.71;50.89;98326.66;4973958;28;19953;-63
2021/07/25 10:09:20;;;;;;;;;;;;;;;30.93;50.79;98337.09;4972911;28;20005;-64
2021/07/25 10:11:47;;;;;;;;;;;;;;;31.68;48.88;98338.03;4970046;28;20431;-63
2021/07/25 10:14:14;;;;;;;;;;;;;;;32.26;45.20;98331.38;4972752;28;19921;-64
2021/07/25 10:16:40;;;;;;;;;;;;;;;31.20;42.99;98327.41;4984108;28;19914;-64
2021/07/25 10:19:05;;;;;;;;;;;;;;;31.64;47.69;98326.16;4962456;28;19918;-63
2021/07/25 10:21:31;;;;;;;;;;;;;;;31.89;51.97;98326.41;4975366;28;19956;-64
2021/07/25 10:23:56;;;;;;;;;;;;;;;31.60;45.84;98327.56;4972560;28;19914;-64
2021/07/25 10:26:25;;;;;;;;;;;;;;;31.89;43.96;98330.91;4973969;28;19921;-63
2021/07/25 10:28:52;;;;;;;;;;;;;;;31.53;46.37;98324.06;4972506;28;20012;-64
2021/07/25 10:31:18;;;;;;;;;;;;;;;33.17;45.19;98328.00;4962915;28;19914;-64
2021/07/25 10:33:43;;;;;;;;;;;;;;;33.29;47.40;98326.28;4971291;28;19918;-64
2021/07/25 10:36:08;;;;;;;;;;;;;;;32.73;44.60;98321.53;4973369;28;19925;-64
2021/07/25 10:38:35;;;;;;;;;;;;;;;30.44;44.31;98328.16;4973481;28;19926;-64
2021/07/25 10:41:00;;;;;;;;;;;;;;;32.81;39.79;98315.94;4987900;28;19918;-63
2021/07/25 10:43:26;;;;;;;;;;;;;;;33.04;40.83;98322.66;4962967;28;20367;-63
2021/07/25 10:46:10;;;;;;;;;;;;;;;33.92;44.45;98324.75;4972944;28;20264;-63
2021/07/25 10:48:35;;;;;;;;;;;;;;;34.22;40.34;98324.13;4972991;28;20012;-64
2021/07/25 10:51:10;;;;;;;;;;;;;;;34.38;38.68;98331.59;4973502;28;19980;-64
2021/07/25 10:53:35;;;;;;;;;;;;;;;31.49;38.55;98336.13;4973636;28;19914;-63
2021/07/25 10:56:00;;;;;;;;;;;;;;;30.70;45.10;98324.06;4968987;28;20319;-64
2021/07/25 10:58:27;;;;;;;;;;;;;;;30.54;40.15;98330.47;4971165;28;19951;-63
2021/07/25 11:00:56;;;;;;;;;;;;;;;28.98;45.16;98326.53;4970426;28;19937;-63
2021/07/25 11:03:24;;;;;;;;;;;;;;;31.05;41.96;98329.38;4971996;28;19929;-63
2021/07/25 11:05:59;;;;;;;;;;;;;;;29.91;42.73;98327.66;4953685;28;20382;-64
2021/07/25 11:08:34;;;;;;;;;;;;;;;29.76;44.26;98329.56;4965224;28;19925;-63
2021/07/25 11:11:00;;;;;;;;;;;;;;;30.53;42.83;98335.97;4972059;28;20423;-63
2021/07/25 11:13:40;;;;;;;;;;;;;;;30.46;45.46;98340.44;4971763;28;19918;-63
2021/07/25 11:16:26;;;;;;;;;;;;;;;29.02;47.42;98338.44;4972280;28;19937;-63
2021/07/25 11:18:51;;;;;;;;;;;;;;;28.86;51.12;98339.44;4971039;28;19918;-63
2021/07/25 11:21:39;;;;;;;;;;;;;;;29.35;60.19;98338.91;4958967;28;19930;-63
2021/07/25 11:24:23;;;;;;;;;;;;;;;29.17;72.20;98335.78;4972269;28;19914;-63
2021/07/25 11:26:49;;;;;;;;;;;;;;;28.30;69.70;98339.75;4972194;28;19914;-62
2021/07/25 11:29:33;;;;;;;;;;;;;;;27.51;78.30;98339.97;4968511;28;19914;-64
2021/07/25 11:31:58;;;;;;;;;;;;;;;27.10;82.43;98341.94;4970107;28;19937;-63
2021/07/25 11:34:25;;;;;;;;;;;;;;;28.33;76.13;98336.78;4977807;28;20379;-63
2021/07/25 11:36:54;;;;;;;;;;;;;;;27.87;77.82;98334.16;4981178;28;20334;-63
2021/07/25 11:39:19;;;;;;;;;;;;;;;28.21;77.70;98330.25;4978958;28;20364;-64
2021/07/25 11:41:45;;;;;;;;;;;;;;;29.44;71.66;98328.97;4971595;28;19920;-63
2021/07/25 11:44:10;;;;;;;;;;;;;;;30.01;64.29;98322.84;4973270;28;20008;-63
2021/07/25 11:46:40;;;;;;;;;;;;;;;31.34;62.21;98320.31;4960710;28;19915;-63
2021/07/25 11:49:12;;;;;;;;;;;;;;;30.35;55.28;98328.50;4971383;28;19969;-64
2021/07/25 11:51:41;;;;;;;;;;;;;;;30.57;60.52;98329.28;4972035;28;20415;-63
2021/07/25 11:54:06;;;;;;;;;;;;;;;30.90;58.45;98320.69;4971588;28;19914;-63
2021/07/25 11:56:31;;;;;;;;;;;;;;;30.74;49.53;98322.63;4971702;28;19929;-64
2021/07/25 11:59:00;;;;;;;;;;;;;;;33.02;48.37;98319.38;4953696;28;20117;-63
2021/07/25 12:01:26;;;;;;;;;;;;;;;32.45;43.11;98319.88;4969574;28;20008;-63
2021/07/25 12:03:51;;;;;;;;;;;;;;;33.84;42.19;98328.47;4971348;28;20013;-64
2021/07/25 12:06:19;;;;;;;;;;;;;;;30.15;49.45;98328.28;4970659;28;19921;-64
2021/07/25 12:09:20;;;;;;;;;;;;;;;30.97;40.65;98321.56;4970550;28;19921;-64
2021/07/25 12:11:46;;;;;;;;;;;;;;;30.73;46.23;98318.34;4934091;28;19930;-63
2021/07/25 12:14:11;;;;;;;;;;;;;;;31.72;40.96;98319.00;4961645;28;19926;-64
2021/07/25 12:16:46;;;;;;;;;;;;;;;31.77;42.34;98328.03;4971324;28;19921;-63
2021/07/25 12:19:13;;;;;;;;;;;;;;;32.78;36.65;98326.25;4971281;28;19928;-64
2021/07/25 12:21:38;;;;;;;;;;;;;;;31.00;37.99;98331.81;4970962;28;20384;-64
2021/07/25 12:24:03;;;;;;;;;;;;;;;31.58;38.25;98329.59;4965371;28;19928;-64
2021/07/25 12:26:41;;;;;;;;;;;;;;;34.13;39.62;98321.72;4968518;28;19918;-64
2021/07/25 12:29:25;;;;;;;;;;;;;;;34.65;36.66;98323.38;4965871;28;19922;-63
2021/07/25 12:31:50;;;;;;;;;;;;;;;30.95;39.46;98320.94;4972109;28;19914;-63
2021/07/25 12:34:21;;;;;;;;;;;;;;;31.15;39.85;98329.00;4963956;28;19915;-64
2021/07/25 12:36:47;;;;;;;;;;;;;;;31.48;41.15;98323.03;4969383;28;19921;-63
2021/07/25 12:39:18;;;;;;;;;;;;;;;34.13;39.72;98319.06;4970515;28;19918;-64
2021/07/25 12:41:44;;;;;;;;;;;;;;;35.62;38.45;98323.47;4970537;28;19914;-63